Terminal Aerodrome Forecast
Issued by NWS

Home | Current Version | Previous Version | Text Only | Print | Product List | Glossary On
Versions: 1 2 3 4 5 6 7 8 9 10 11 12 13 14 15 16
296
FTUS46 KMTR 082340
TAFSJC
TAF
KSJC 082340Z 0900/0924 13008KT P6SM VCSH FEW007 BKN040 OVC170
     FM090600 12005KT P6SM VCSH BKN020 OVC035
     FM091800 13006KT P6SM BKN025 OVC050=

USA.gov is the U.S. government's official web portal to all federal, state and local government web resources and services.